Time;durP1;ratioP1;P1;durP2;ratioP2;P2;SDS_P1;SDS_P2;PMS_P1;PMS_P2;Temp;Humidity;BMP_temperature;BMP_pressure;BME280_temperature;BME280_humidity;BME280_pressure;Samples;Min_cycle;Max_cycle;Signal;HPM_P1;HPM_P2
2023/06/07 00:01:21;;;;;;;10.05;8.98;;;;;;;16.35;100.00;102852.25;5070852;28;20025;-70
2023/06/07 00:03:48;;;;;;;15.02;9.93;;;;;;;16.24;100.00;102852.31;5052426;28;20029;-71
2023/06/07 00:06:14;;;;;;;14.68;9.27;;;;;;;16.30;100.00;102843.75;5052216;28;20025;-70
2023/06/07 00:08:40;;;;;;;13.75;8.73;;;;;;;16.49;100.00;102855.63;5052393;28;20036;-70
2023/06/07 00:11:05;;;;;;;17.27;8.93;;;;;;;16.29;100.00;102836.88;5051846;28;20136;-70
2023/06/07 00:13:31;;;;;;;13.15;9.65;;;;;;;15.79;100.00;102757.56;5070335;28;20039;-69
2023/06/07 00:15:57;;;;;;;16.05;10.00;;;;;;;16.20;100.00;102798.44;5070657;28;20128;-71
2023/06/07 00:18:22;;;;;;;13.70;9.50;;;;;;;15.97;100.00;102788.28;5070702;28;20039;-70
2023/06/07 00:20:49;;;;;;;13.82;9.93;;;;;;;15.72;100.00;102757.59;5070507;28;20029;-70
2023/06/07 00:23:18;;;;;;;12.73;9.98;;;;;;;15.69;100.00;102755.06;5056246;28;20384;-71
2023/06/07 00:25:44;;;;;;;13.65;9.90;;;;;;;15.74;100.00;102751.59;5069508;28;20419;-71
2023/06/07 00:28:09;;;;;;;15.73;10.25;;;;;;;15.10;100.00;102661.22;5056254;28;20031;-71
2023/06/07 00:30:35;;;;;;;12.73;9.90;;;;;;;15.60;100.00;102750.81;5073243;28;20136;-70
2023/06/07 00:33:00;;;;;;;15.23;10.63;;;;;;;15.36;100.00;102674.81;5074155;28;20088;-71
2023/06/07 00:35:26;;;;;;;12.75;10.32;;;;;;;15.52;100.00;102706.38;5074146;28;20028;-71
2023/06/07 00:37:51;;;;;;;12.70;10.07;;;;;;;15.20;100.00;102657.78;5055643;28;20383;-71
2023/06/07 00:40:17;;;;;;;13.10;10.65;;;;;;;15.43;100.00;102657.72;5073715;28;20513;-70
2023/06/07 00:42:42;;;;;;;13.10;10.48;;;;;;;15.40;100.00;102630.34;5073195;28;20033;-71
2023/06/07 00:45:09;;;;;;;11.13;9.95;;;;;;;15.40;100.00;102573.94;5074022;28;20032;-71
2023/06/07 00:47:37;;;;;;;12.02;10.77;;;;;;;15.04;100.00;102529.69;5055418;28;20031;-70
2023/06/07 00:50:04;;;;;;;11.65;9.13;;;;;;;15.71;100.00;102558.38;5073502;28;20063;-71
2023/06/07 00:52:29;;;;;;;11.20;9.80;;;;;;;15.23;100.00;102462.13;5073347;28;20046;-70
2023/06/07 00:54:55;;;;;;;11.65;10.18;;;;;;;15.56;100.00;102488.38;5073190;28;20036;-70
2023/06/07 00:57:20;;;;;;;11.25;9.88;;;;;;;15.63;100.00;102437.88;5072910;28;20032;-71
2023/06/07 00:59:46;;;;;;;11.50;10.32;;;;;;;15.34;100.00;102376.56;5073456;28;20494;-70
2023/06/07 01:02:14;;;;;;;13.75;10.55;;;;;;;15.54;100.00;102381.53;5072671;28;20036;-70
2023/06/07 01:04:42;;;;;;;10.95;9.88;;;;;;;15.30;100.00;102303.13;5072785;28;20052;-70
2023/06/07 01:07:08;;;;;;;12.30;10.13;;;;;;;15.12;100.00;102257.16;5073201;28;20494;-72
2023/06/07 01:09:35;;;;;;;10.82;9.80;;;;;;;15.36;100.00;102233.00;5073507;28;20115;-70
2023/06/07 01:12:03;;;;;;;10.88;9.63;;;;;;;15.57;100.00;102228.50;5073171;28;20032;-70
2023/06/07 01:14:32;;;;;;;9.77;8.77;;;;;;;15.48;100.00;102181.59;5073103;28;20078;-70
2023/06/07 01:16:58;;;;;;;11.52;10.13;;;;;;;15.50;100.00;102138.84;5073039;28;20025;-70
2023/06/07 01:19:29;;;;;;;10.70;9.60;;;;;;;15.01;100.00;102040.38;5054749;28;20115;-71
2023/06/07 01:22:05;;;;;;;11.00;9.77;;;;;;;15.59;100.00;102110.50;5073451;28;20040;-70
2023/06/07 01:24:31;;;;;;;10.68;9.05;;;;;;;15.40;100.00;102032.13;5054903;28;20067;-70
2023/06/07 01:26:58;;;;;;;10.25;8.93;;;;;;;15.55;100.00;102029.34;5072660;28;20120;-70
2023/06/07 01:29:26;;;;;;;11.77;9.52;;;;;;;15.48;100.00;102020.06;5054759;28;20085;-70
2023/06/07 01:31:53;;;;;;;12.43;9.68;;;;;;;15.25;100.00;101973.41;5072193;28;20024;-73
2023/06/07 01:34:20;;;;;;;10.75;9.43;;;;;;;15.48;100.00;101981.63;5072872;28;20067;-70
2023/06/07 01:36:47;;;;;;;9.93;8.68;;;;;;;15.72;100.00;102022.25;5072416;28;20082;-70
2023/06/07 01:39:14;;;;;;;12.95;9.20;;;;;;;15.63;100.00;101998.50;5072433;28;20105;-69
2023/06/07 01:41:41;;;;;;;8.77;7.90;;;;;;;15.56;100.00;102001.16;5071918;28;20123;-70
2023/06/07 01:44:08;;;;;;;11.40;9.50;;;;;;;15.38;100.00;101973.19;5053893;28;20102;-69
2023/06/07 01:46:34;;;;;;;10.60;8.77;;;;;;;15.51;100.00;101974.72;5054369;28;20040;-70
2023/06/07 01:49:06;;;;;;;9.40;8.32;;;;;;;15.10;100.00;101874.56;5072390;28;20020;-71
2023/06/07 01:51:32;;;;;;;9.95;8.73;;;;;;;15.25;100.00;101915.28;5072569;28;20060;-71
2023/06/07 01:53:58;;;;;;;9.93;8.50;;;;;;;15.21;100.00;101921.34;5054630;28;20468;-71
2023/06/07 01:56:35;;;;;;;12.20;8.68;;;;;;;15.06;100.00;101898.53;5072113;28;20136;-72
2023/06/07 01:59:16;;;;;;;12.55;8.98;;;;;;;15.33;100.00;101936.53;5071135;28;20412;-71
2023/06/07 02:01:47;;;;;;;10.27;8.63;;;;;;;15.45;100.00;101918.41;5054611;28;20392;-71
2023/06/07 02:04:18;;;;;;;11.57;8.63;;;;;;;15.55;100.00;101913.97;5072749;28;20042;-70
2023/06/07 02:06:45;;;;;;;11.85;8.32;;;;;;;15.20;100.00;101878.66;5054084;28;20032;-69
2023/06/07 02:09:12;;;;;;;11.60;9.43;;;;;;;15.22;100.00;101882.03;5053826;28;20024;-70
2023/06/07 02:11:39;;;;;;;9.98;8.98;;;;;;;15.03;100.00;101844.78;5072072;28;20032;-69
2023/06/07 02:14:06;;;;;;;11.57;9.48;;;;;;;15.12;100.00;101898.44;5071954;28;20094;-70
2023/06/07 02:16:32;;;;;;;11.55;9.50;;;;;;;15.18;100.00;101874.41;5071817;28;20024;-68
2023/06/07 02:18:58;;;;;;;12.07;9.20;;;;;;;15.18;100.00;101895.78;5053741;28;20055;-69
2023/06/07 02:21:24;;;;;;;14.30;9.15;;;;;;;15.08;100.00;101857.50;5071529;28;20553;-70
2023/06/07 02:23:50;;;;;;;10.43;8.32;;;;;;;15.16;100.00;101863.34;5053789;28;20032;-70
2023/06/07 02:26:16;;;;;;;11.88;8.13;;;;;;;15.16;100.00;101871.88;5071535;28;20056;-70
2023/06/07 02:28:41;;;;;;;10.40;8.48;;;;;;;15.27;100.00;101912.72;5053422;28;20024;-70
2023/06/07 02:31:07;;;;;;;9.20;8.10;;;;;;;15.19;100.00;101900.00;5053465;28;20086;-70
2023/06/07 02:33:32;;;;;;;9.10;7.90;;;;;;;15.20;100.00;101873.53;5071433;28;20090;-69
2023/06/07 02:35:58;;;;;;;12.50;8.13;;;;;;;14.98;100.00;101887.53;5071061;28;20410;-70
2023/06/07 02:38:23;;;;;;;12.25;8.30;;;;;;;14.89;100.00;101881.72;5071686;28;20020;-70
2023/06/07 02:40:49;;;;;;;9.07;7.38;;;;;;;15.22;100.00;101943.53;5071526;28;20031;-70
2023/06/07 02:43:14;;;;;;;11.35;8.38;;;;;;;14.91;100.00;101947.44;5054184;28;20098;-70
2023/06/07 02:45:40;;;;;;;9.00;8.10;;;;;;;14.88;100.00;101910.75;5070380;28;20037;-70
2023/06/07 02:48:06;;;;;;;9.13;7.82;;;;;;;14.82;100.00;101913.41;5071476;28;20063;-71
2023/06/07 02:50:31;;;;;;;12.93;7.72;;;;;;;14.77;100.00;101939.09;5053242;28;20028;-71
2023/06/07 02:52:57;;;;;;;11.90;7.43;;;;;;;14.75;100.00;101910.94;5071011;28;20174;-70
2023/06/07 02:55:23;;;;;;;9.43;7.13;;;;;;;15.22;100.00;101960.63;5071216;28;20087;-71
2023/06/07 02:57:48;;;;;;;10.70;7.07;;;;;;;15.33;100.00;101982.66;5071216;28;20472;-71
2023/06/07 03:00:14;;;;;;;10.48;7.35;;;;;;;15.48;100.00;101977.34;5071037;28;20035;-73
2023/06/07 03:02:40;;;;;;;8.00;6.78;;;;;;;15.11;100.00;101939.47;5071036;28;20051;-71
2023/06/07 03:05:07;;;;;;;8.95;6.65;;;;;;;15.19;100.00;101945.31;5071023;28;20487;-72
2023/06/07 03:07:34;;;;;;;12.57;7.30;;;;;;;15.39;100.00;102002.25;5053180;28;20058;-71
2023/06/07 03:10:00;;;;;;;8.80;7.00;;;;;;;15.52;100.00;102014.03;5071026;28;20426;-71
2023/06/07 03:12:25;;;;;;;8.10;6.45;;;;;;;15.29;100.00;101991.25;5070911;28;20044;-71
2023/06/07 03:14:50;;;;;;;9.50;6.20;;;;;;;15.16;100.00;101981.22;5052762;28;20040;-70
2023/06/07 03:17:17;;;;;;;11.60;6.40;;;;;;;15.20;100.00;101970.91;5070664;28;20406;-70
2023/06/07 03:19:43;;;;;;;8.68;6.05;;;;;;;15.77;100.00;102032.47;5070818;28;20027;-69
2023/06/07 03:22:09;;;;;;;8.32;6.20;;;;;;;15.06;100.00;101957.44;5071039;28;20060;-70
2023/06/07 03:24:36;;;;;;;9.45;6.50;;;;;;;15.61;100.00;102017.28;5070144;28;20110;-69
2023/06/07 03:27:05;;;;;;;9.20;6.18;;;;;;;15.95;100.00;102080.88;5052715;28;20048;-72
2023/06/07 03:29:31;;;;;;;10.23;6.40;;;;;;;15.77;100.00;102070.94;5053138;28;20363;-71
2023/06/07 03:31:57;;;;;;;9.63;6.88;;;;;;;15.66;100.00;102053.13;5070898;28;20032;-70
2023/06/07 03:34:23;;;;;;;10.13;7.60;;;;;;;15.92;100.00;102056.13;5070262;28;20024;-71
2023/06/07 03:36:49;;;;;;;10.88;7.53;;;;;;;15.54;100.00;102020.84;5071235;28;20086;-69
2023/06/07 03:39:15;;;;;;;12.60;8.50;;;;;;;15.92;100.00;102099.75;5052793;28;20033;-71
2023/06/07 03:41:40;;;;;;;9.40;7.78;;;;;;;15.71;100.00;102065.91;5070955;28;20028;-70
2023/06/07 03:44:06;;;;;;;12.07;7.18;;;;;;;15.65;100.00;102076.25;5052710;28;20127;-70
2023/06/07 03:46:31;;;;;;;8.93;6.80;;;;;;;15.99;100.00;102124.44;5069675;28;20119;-75
2023/06/07 03:48:56;;;;;;;9.63;6.53;;;;;;;15.85;100.00;102099.84;5052277;28;20457;-71
2023/06/07 03:51:22;;;;;;;10.50;7.05;;;;;;;16.38;100.00;102157.16;5070504;28;20430;-71
2023/06/07 03:53:47;;;;;;;8.50;6.10;;;;;;;16.04;100.00;102137.19;5070245;28;20548;-70
2023/06/07 03:56:14;;;;;;;8.07;6.60;;;;;;;16.46;100.00;102167.28;5052764;28;20029;-70
2023/06/07 03:58:39;;;;;;;9.57;5.50;;;;;;;16.08;100.00;102129.44;5074298;28;20024;-70
2023/06/07 04:01:05;;;;;;;9.48;5.50;;;;;;;16.34;100.00;102152.94;5074481;28;20051;-70
2023/06/07 04:03:30;;;;;;;9.98;6.30;;;;;;;16.58;100.00;102215.09;5074291;28;20095;-72
2023/06/07 04:05:56;;;;;;;9.13;5.95;;;;;;;16.59;100.00;102176.53;5074417;28;20041;-71
2023/06/07 04:08:22;;;;;;;8.80;5.75;;;;;;;16.43;100.00;102204.16;5073875;28;20550;-70
2023/06/07 04:10:48;;;;;;;11.38;5.70;;;;;;;16.75;100.00;102233.63;5073868;28;20090;-70
2023/06/07 04:13:14;;;;;;;12.07;6.32;;;;;;;16.89;100.00;102249.66;5074248;28;20059;-71
2023/06/07 04:15:40;;;;;;;11.32;6.85;;;;;;;16.66;100.00;102202.97;5055664;28;20029;-70
2023/06/07 04:18:05;;;;;;;9.52;5.93;;;;;;;17.07;100.00;102270.72;5056462;28;20025;-72
2023/06/07 04:20:31;;;;;;;10.32;6.85;;;;;;;17.03;100.00;102256.28;5074102;28;20035;-72
2023/06/07 04:22:56;;;;;;;12.20;6.13;;;;;;;17.07;100.00;102278.44;5073646;28;20441;-72
2023/06/07 04:25:27;;;;;;;11.35;6.32;;;;;;;17.27;100.00;102289.22;5045040;28;20060;-72
2023/06/07 04:27:59;;;;;;;10.48;6.63;;;;;;;16.50;100.00;102186.94;5033193;28;20160;-72
2023/06/07 04:30:25;;;;;;;13.20;6.22;;;;;;;17.00;100.00;102289.72;5023885;28;20061;-72
2023/06/07 04:32:52;;;;;;;10.95;7.07;;;;;;;16.88;100.00;102259.09;5032886;28;20033;-74
2023/06/07 04:35:19;;;;;;;12.15;7.50;;;;;;;17.20;100.00;102272.22;5033556;28;20029;-74
2023/06/07 04:37:45;;;;;;;11.60;7.13;;;;;;;17.43;100.00;102320.66;5034902;28;20065;-71
2023/06/07 04:40:13;;;;;;;12.13;7.55;;;;;;;17.25;100.00;102285.81;5033962;28;20497;-73
2023/06/07 04:42:40;;;;;;;13.05;7.78;;;;;;;17.79;100.00;102314.84;5033187;28;20112;-73
2023/06/07 04:45:06;;;;;;;10.38;7.53;;;;;;;17.31;100.00;102228.31;5033811;28;20037;-74
2023/06/07 04:47:32;;;;;;;20.05;9.25;;;;;;;17.70;100.00;102324.47;5033846;28;20033;-73
2023/06/07 04:49:59;;;;;;;24.60;12.93;;;;;;;17.58;100.00;102317.84;5032842;28;20025;-74
2023/06/07 04:52:25;;;;;;;19.20;10.80;;;;;;;17.86;100.00;102336.16;5034637;28;20029;-72
2023/06/07 04:54:51;;;;;;;14.70;9.80;;;;;;;18.23;100.00;102333.66;5032784;28;20041;-73
2023/06/07 04:57:18;;;;;;;13.77;8.43;;;;;;;17.87;100.00;102258.91;5034715;28;20107;-73
2023/06/07 04:59:44;;;;;;;10.93;7.82;;;;;;;18.05;100.00;102322.00;5032716;28;20044;-74
2023/06/07 05:02:10;;;;;;;12.73;8.15;;;;;;;17.86;100.00;102284.69;5034039;28;20114;-73
2023/06/07 05:04:38;;;;;;;14.75;7.93;;;;;;;18.41;100.00;102331.53;5032064;28;20029;-73
2023/06/07 05:07:05;;;;;;;12.30;7.55;;;;;;;18.47;100.00;102330.56;5032863;28;20028;-72
2023/06/07 05:09:30;;;;;;;11.52;7.05;;;;;;;19.00;100.00;102320.69;5032059;28;20034;-73
2023/06/07 05:11:57;;;;;;;11.60;7.03;;;;;;;19.35;100.00;102375.72;5033415;28;20048;-74
2023/06/07 05:14:22;;;;;;;15.43;9.75;;;;;;;18.46;100.00;102339.19;5029478;28;20030;-74
2023/06/07 05:16:48;;;;;;;13.40;7.60;;;;;;;18.30;100.00;102299.16;5033548;28;20485;-74
2023/06/07 05:19:16;;;;;;;12.05;7.60;;;;;;;18.64;100.00;102349.91;5033782;28;20068;-72
2023/06/07 05:21:41;;;;;;;19.30;10.40;;;;;;;18.69;100.00;102337.78;5033825;28;20059;-74
2023/06/07 05:24:07;;;;;;;18.65;10.23;;;;;;;18.92;100.00;102356.13;5033516;28;20116;-74
2023/06/07 05:26:32;;;;;;;14.75;8.50;;;;;;;18.98;100.00;102352.53;5032541;28;20191;-74
2023/06/07 05:28:58;;;;;;;8.70;6.40;;;;;;;18.53;100.00;102331.28;5032457;28;20073;-73
2023/06/07 05:31:25;;;;;;;14.60;7.95;;;;;;;19.14;100.00;102363.31;5033281;28;20503;-73
2023/06/07 05:33:51;;;;;;;9.70;6.00;;;;;;;18.82;100.00;102308.25;5031746;28;20425;-73
2023/06/07 05:36:16;;;;;;;16.35;7.95;;;;;;;18.45;100.00;102285.97;5033441;28;20052;-75
2023/06/07 05:38:42;;;;;;;9.73;5.57;;;;;;;19.03;100.00;102348.13;5033223;28;20026;-74
2023/06/07 05:41:07;;;;;;;20.60;12.32;;;;;;;18.89;100.00;102320.09;5033340;28;20033;-74
2023/06/07 05:43:33;;;;;;;9.27;6.72;;;;;;;19.38;100.00;102287.91;5033055;28;20029;-73
2023/06/07 05:45:58;;;;;;;10.15;6.13;;;;;;;19.29;100.00;102365.53;5033520;28;20026;-73
2023/06/07 05:48:24;;;;;;;8.38;6.18;;;;;;;19.02;100.00;102347.28;5031531;28;20095;-73
2023/06/07 05:50:49;;;;;;;9.38;7.20;;;;;;;19.25;100.00;102336.41;5033163;28;20041;-74
2023/06/07 05:53:16;;;;;;;12.80;8.73;;;;;;;19.48;100.00;102359.03;5031838;28;20116;-73
2023/06/07 05:55:42;;;;;;;8.27;6.50;;;;;;;19.64;100.00;102352.56;5032270;28;20034;-74
2023/06/07 05:58:07;;;;;;;10.23;6.88;;;;;;;19.42;100.00;102341.13;5031976;28;20044;-73
2023/06/07 06:00:33;;;;;;;8.30;5.78;;;;;;;19.33;100.00;102302.69;5033207;28;20037;-74
2023/06/07 06:03:11;;;;;;;7.38;5.72;;;;;;;20.38;100.00;102342.69;5032832;28;20052;-73
2023/06/07 06:05:36;;;;;;;14.88;8.43;;;;;;;20.51;100.00;102354.34;5032679;28;20045;-74
2023/06/07 06:08:02;;;;;;;12.90;7.35;;;;;;;19.81;100.00;102332.28;5032718;28;20021;-73
2023/06/07 06:10:28;;;;;;;8.77;5.78;;;;;;;19.55;100.00;102280.56;5031328;28;20114;-74
2023/06/07 06:12:55;;;;;;;11.10;7.72;;;;;;;19.19;100.00;102317.63;5032969;28;20029;-71
2023/06/07 06:15:21;;;;;;;10.77;6.63;;;;;;;19.94;100.00;102333.66;5032669;28;20021;-74
2023/06/07 06:17:49;;;;;;;15.02;9.25;;;;;;;19.85;100.00;102275.34;5032362;28;20025;-73
2023/06/07 06:20:16;;;;;;;10.80;6.57;;;;;;;19.92;100.00;102265.69;5031863;28;20124;-74
2023/06/07 06:22:41;;;;;;;11.40;6.47;;;;;;;20.13;100.00;102251.25;5033016;28;20036;-74
2023/06/07 06:25:07;;;;;;;11.07;6.25;;;;;;;20.03;100.00;102222.28;5043505;28;20044;-74
2023/06/07 06:27:32;;;;;;;10.52;6.30;;;;;;;20.28;100.00;102207.72;5054414;28;20036;-73
2023/06/07 06:29:58;;;;;;;9.88;6.07;;;;;;;20.55;100.00;102273.22;5053479;28;20108;-72
2023/06/07 06:32:23;;;;;;;9.63;5.90;;;;;;;20.44;100.00;102283.06;5051796;28;20087;-73
2023/06/07 06:34:49;;;;;;;9.85;7.05;;;;;;;19.73;100.00;102211.16;5052215;28;20171;-71
2023/06/07 06:37:14;;;;;;;10.90;6.57;;;;;;;20.55;100.00;102219.78;5051528;28;20399;-73
2023/06/07 06:39:39;;;;;;;10.98;5.75;;;;;;;21.10;100.00;102233.41;5052092;28;20115;-73
2023/06/07 06:42:05;;;;;;;8.88;5.60;;;;;;;20.44;100.00;102234.78;5034148;28;20083;-72
2023/06/07 06:44:32;;;;;;;8.80;5.50;;;;;;;20.83;100.00;102236.94;5052006;28;20505;-72
2023/06/07 06:46:57;;;;;;;7.03;5.82;;;;;;;21.41;100.00;102221.91;5051525;28;20033;-72
2023/06/07 06:49:23;;;;;;;7.75;5.68;;;;;;;21.04;100.00;102179.28;5033977;28;20680;-72
2023/06/07 06:51:48;;;;;;;10.05;6.15;;;;;;;20.45;100.00;102156.34;5051631;28;20033;-73
2023/06/07 06:54:13;;;;;;;10.15;5.60;;;;;;;21.05;100.00;102173.25;5051685;28;20085;-72
2023/06/07 06:56:39;;;;;;;8.68;5.13;;;;;;;20.28;100.00;102166.38;5034119;28;20443;-73
2023/06/07 06:59:05;;;;;;;7.03;4.93;;;;;;;20.77;100.00;102175.94;5051418;28;20033;-74
2023/06/07 07:01:48;;;;;;;7.72;5.70;;;;;;;21.58;100.00;102161.72;5051738;28;20029;-72
2023/06/07 07:04:14;;;;;;;10.73;5.75;;;;;;;21.73;100.00;102147.34;5033719;28;20028;-72
2023/06/07 07:06:41;;;;;;;5.53;4.85;;;;;;;21.24;100.00;102118.16;5051492;28;20040;-73
2023/06/07 07:09:07;;;;;;;8.70;5.15;;;;;;;20.42;100.00;102050.47;5052331;28;20033;-72
2023/06/07 07:11:33;;;;;;;9.65;4.68;;;;;;;22.78;100.00;102132.56;5071498;28;20483;-72
2023/06/07 07:13:59;;;;;;;7.05;5.65;;;;;;;22.32;100.00;102105.13;5053391;28;20028;-72
2023/06/07 07:16:25;;;;;;;8.95;4.38;;;;;;;22.10;100.00;102068.09;5071116;28;20036;-72
2023/06/07 07:18:50;;;;;;;7.90;5.00;;;;;;;22.32;100.00;102029.97;5071279;28;20415;-73
2023/06/07 07:21:16;;;;;;;6.63;4.00;;;;;;;21.85;100.00;102017.38;5053193;28;20446;-74
2023/06/07 07:23:41;;;;;;;8.75;4.47;;;;;;;22.33;100.00;102055.00;5053120;28;20664;-72
2023/06/07 07:26:06;;;;;;;7.72;4.78;;;;;;;22.62;100.00;102025.19;5071034;28;20106;-72
2023/06/07 07:28:32;;;;;;;5.68;3.90;;;;;;;22.95;100.00;102026.28;5070618;28;20120;-74
2023/06/07 07:30:58;;;;;;;8.55;4.25;;;;;;;23.05;100.00;102014.56;5070921;28;20406;-73
2023/06/07 07:33:23;;;;;;;10.50;4.32;;;;;;;23.09;100.00;102010.06;5071392;28;20119;-74
2023/06/07 07:35:49;;;;;;;6.97;4.18;;;;;;;23.18;100.00;101958.53;5070892;28;20024;-72
2023/06/07 07:38:15;;;;;;;8.93;5.80;;;;;;;22.43;100.00;101983.69;5070839;28;20437;-73
2023/06/07 07:40:43;;;;;;;6.60;4.80;;;;;;;22.00;100.00;101908.75;5052794;28;20043;-73
2023/06/07 07:43:10;;;;;;;7.97;3.83;;;;;;;23.39;100.00;101982.66;5070758;28;20459;-72
2023/06/07 07:45:36;;;;;;;7.95;3.88;;;;;;;22.88;100.00;101923.66;5070758;28;20108;-73
2023/06/07 07:48:01;;;;;;;9.05;4.25;;;;;;;22.87;100.00;101921.16;5071240;28;20032;-73
2023/06/07 07:50:27;;;;;;;7.47;3.78;;;;;;;22.15;100.00;101909.78;5070827;28;20043;-73
2023/06/07 07:52:54;;;;;;;7.10;3.95;;;;;;;23.34;100.00;101919.69;5071054;28;20043;-73
2023/06/07 07:55:23;;;;;;;8.85;4.05;;;;;;;22.80;100.00;101868.69;5070653;28;20155;-73
2023/06/07 07:57:48;;;;;;;8.38;4.03;;;;;;;22.41;100.00;101891.31;5071168;28;20499;-72
2023/06/07 08:00:14;;;;;;;6.03;3.78;;;;;;;23.36;100.00;101904.88;5053169;28;20036;-73
2023/06/07 08:02:40;;;;;;;7.82;3.80;;;;;;;21.95;100.00;101882.19;5070541;28;20055;-73
2023/06/07 08:05:06;;;;;;;6.72;4.20;;;;;;;23.01;100.00;101909.19;5053068;28;20024;-73
2023/06/07 08:07:32;;;;;;;6.25;3.88;;;;;;;22.38;100.00;101868.13;5053390;28;20077;-72
2023/06/07 08:09:58;;;;;;;10.40;4.05;;;;;;;22.47;100.00;101891.03;5070557;28;20055;-73
2023/06/07 08:12:23;;;;;;;6.90;3.80;;;;;;;23.32;100.00;101903.34;5070362;28;20126;-73
2023/06/07 08:14:49;;;;;;;5.53;3.55;;;;;;;22.69;100.00;101839.00;5052958;28;20463;-73
2023/06/07 08:17:14;;;;;;;6.38;3.70;;;;;;;23.15;100.00;101841.88;5052665;28;20473;-73
2023/06/07 08:19:39;;;;;;;7.35;4.13;;;;;;;23.21;100.00;101742.06;5070917;28;20033;-72
2023/06/07 08:22:07;;;;;;;9.75;4.47;;;;;;;23.73;100.00;101797.34;5071083;28;20455;-72
2023/06/07 08:24:32;;;;;;;6.38;4.60;;;;;;;23.35;100.00;101768.19;5070185;28;20033;-73
2023/06/07 08:26:58;;;;;;;7.40;3.90;;;;;;;24.13;100.00;101776.06;5070810;28;20457;-73
2023/06/07 08:29:23;;;;;;;7.20;4.10;;;;;;;24.90;100.00;101763.81;5052991;28;20032;-74
2023/06/07 08:31:49;;;;;;;8.02;4.85;;;;;;;24.11;100.00;101738.09;5070301;28;20466;-73
2023/06/07 08:34:14;;;;;;;6.32;4.10;;;;;;;23.35;100.00;101679.91;5070484;28;20032;-73
2023/06/07 08:36:41;;;;;;;7.32;4.15;;;;;;;22.97;100.00;101744.19;5070311;28;20028;-74
2023/06/07 08:39:07;;;;;;;6.95;4.60;;;;;;;23.11;100.00;101751.25;5070358;28;20048;-74
2023/06/07 08:41:33;;;;;;;6.15;3.97;;;;;;;24.01;100.00;101759.34;5070457;28;20033;-73
2023/06/07 08:43:58;;;;;;;5.40;3.92;;;;;;;23.37;100.00;101717.00;5073544;28;20416;-73
2023/06/07 08:46:25;;;;;;;5.88;4.00;;;;;;;23.85;100.00;101711.75;5074211;28;20064;-74
2023/06/07 08:48:53;;;;;;;5.78;3.65;;;;;;;24.36;100.00;101683.78;5074406;28;20074;-73
2023/06/07 08:51:21;;;;;;;5.97;3.78;;;;;;;24.15;100.00;101685.81;5073636;28;20120;-74
2023/06/07 08:53:55;;;;;;;8.80;3.72;;;;;;;23.08;100.00;101637.19;5073769;28;20086;-73
2023/06/07 08:56:22;;;;;;;8.57;4.25;;;;;;;23.79;100.00;101691.28;5074211;28;20029;-74
2023/06/07 08:58:50;;;;;;;7.78;4.18;;;;;;;24.33;100.00;101658.75;5055972;28;20106;-73
2023/06/07 09:01:16;;;;;;;7.68;3.90;;;;;;;24.11;100.00;101628.91;5073774;28;20029;-74
2023/06/07 09:03:42;;;;;;;8.82;4.30;;;;;;;25.00;100.00;101649.59;5056007;28;20039;-74
2023/06/07 09:06:08;;;;;;;7.47;3.90;;;;;;;25.03;100.00;101566.91;5073916;28;20029;-74
2023/06/07 09:08:33;;;;;;;7.13;4.05;;;;;;;24.96;100.00;101550.00;5055564;28;20093;-74
2023/06/07 09:10:59;;;;;;;6.57;4.20;;;;;;;23.75;100.00;101515.69;5073104;28;20461;-73
2023/06/07 09:13:24;;;;;;;6.95;3.90;;;;;;;24.80;100.00;101525.84;5055499;28;20071;-73
2023/06/07 09:15:53;;;;;;;10.25;4.22;;;;;;;24.30;100.00;101551.50;5055255;28;20537;-71
2023/06/07 09:18:18;;;;;;;8.50;3.75;;;;;;;23.62;100.00;101464.56;5073325;28;20487;-71
2023/06/07 09:20:44;;;;;;;5.50;3.97;;;;;;;24.19;100.00;101481.06;5073227;28;20067;-70
2023/06/07 09:23:14;;;;;;;7.85;3.80;;;;;;;25.13;100.00;101460.41;5072918;28;20028;-71
2023/06/07 09:25:44;;;;;;;6.97;3.70;;;;;;;24.84;100.00;101413.66;5073195;28;20044;-71
2023/06/07 09:28:14;;;;;;;7.72;3.42;;;;;;;25.92;100.00;101445.56;5073660;28;20033;-71
2023/06/07 09:30:54;;;;;;;5.65;3.75;;;;;;;25.87;100.00;101379.88;5072702;28;20025;-70
2023/06/07 09:33:29;;;;;;;7.70;3.40;;;;;;;25.19;100.00;101380.13;4700741;28;10000182;-72
2023/06/07 09:36:08;;;;;;;9.93;3.67;;;;;;;26.01;100.00;101356.28;5052669;28;20024;-72
2023/06/07 09:38:35;;;;;;;6.95;3.30;;;;;;;25.83;100.00;101318.47;5071023;28;20063;-74
2023/06/07 09:41:01;;;;;;;4.80;2.75;;;;;;;24.78;100.00;101315.16;5061512;28;20033;-73
2023/06/07 09:43:27;;;;;;;7.75;3.20;;;;;;;24.55;100.00;101239.50;5062586;28;20056;-73
2023/06/07 09:45:56;;;;;;;5.70;3.35;;;;;;;25.00;100.00;101238.28;5073005;28;20020;-73
2023/06/07 09:48:22;;;;;;;4.38;3.10;;;;;;;24.68;100.00;101198.75;5066340;28;20021;-70
2023/06/07 09:50:57;;;;;;;6.55;3.08;;;;;;;25.16;100.00;101226.69;5052475;28;20029;-70
2023/06/07 09:53:23;;;;;;;7.13;3.05;;;;;;;25.32;100.00;101117.91;5051949;28;20029;-70
2023/06/07 09:55:49;;;;;;;5.72;3.10;;;;;;;26.06;100.00;101192.50;5052365;28;20458;-71
2023/06/07 09:58:22;;;;;;;6.45;3.30;;;;;;;26.31;100.00;101167.16;5052086;28;20032;-70
2023/06/07 10:00:48;;;;;;;4.93;3.05;;;;;;;24.85;100.00;101125.63;5050729;28;20040;-71
2023/06/07 10:03:13;;;;;;;3.72;2.65;;;;;;;25.75;100.00;101113.13;5052097;28;20037;-71
2023/06/07 10:05:41;;;;;;;3.83;2.80;;;;;;;25.82;100.00;101090.84;5051997;28;20055;-70
2023/06/07 10:08:08;;;;;;;5.03;2.80;;;;;;;24.73;100.00;101087.44;5051769;28;20531;-70
2023/06/07 10:10:34;;;;;;;6.22;3.20;;;;;;;25.25;100.00;101069.00;5051305;28;20029;-71
2023/06/07 10:13:04;;;;;;;5.05;2.70;;;;;;;25.39;100.00;101045.41;5051509;28;20028;-71
2023/06/07 10:15:30;;;;;;;4.55;2.70;;;;;;;25.08;100.00;101064.16;5050265;28;20029;-71
2023/06/07 10:18:17;;;;;;;4.80;2.90;;;;;;;26.11;100.00;101044.38;5051945;28;20033;-70
2023/06/07 10:21:02;;;;;;;4.90;2.50;;;;;;;25.74;100.00;100974.16;5051332;28;20082;-71
2023/06/07 10:23:35;;;;;;;6.25;2.80;;;;;;;26.28;100.00;101008.28;5051431;28;20178;-71
2023/06/07 10:26:11;;;;;;;3.83;2.50;;;;;;;26.78;100.00;101124.44;5050282;28;20076;-71
2023/06/07 10:28:40;;;;;;;4.35;2.63;;;;;;;25.03;100.00;101271.91;5033430;28;20052;-70
2023/06/07 10:31:10;;;;;;;6.15;2.63;;;;;;;25.60;100.00;101382.59;5051984;28;20102;-70
2023/06/07 10:33:37;;;;;;;6.88;2.67;;;;;;;25.93;100.00;101541.09;5050620;28;20028;-71
2023/06/07 10:36:05;;;;;;;5.90;2.80;;;;;;;25.85;100.00;101731.09;5051213;28;20029;-70
2023/06/07 10:38:32;;;;;;;6.18;2.38;;;;;;;25.67;100.00;101761.75;5052003;28;20059;-71
2023/06/07 10:41:01;;;;;;;7.05;2.95;;;;;;;26.03;100.00;101861.13;5051638;28;20115;-72
2023/06/07 10:43:29;;;;;;;10.55;4.88;;;;;;;25.61;100.00;102633.50;5050259;28;20025;-70
2023/06/07 10:46:16;;;;;;;8.20;4.22;;;;;;;25.47;100.00;102427.44;5051087;28;20411;-71
2023/06/07 10:48:45;;;;;;;7.00;3.22;;;;;;;25.63;100.00;102154.66;5051748;28;20067;-69
2023/06/07 10:51:11;;;;;;;7.85;4.30;;;;;;;25.15;100.00;101881.25;5051409;28;20029;-70
2023/06/07 10:53:49;;;;;;;4.72;3.40;;;;;;;25.96;100.00;101661.69;5051047;28;20099;-70
2023/06/07 10:56:34;;;;;;;5.20;2.78;;;;;;;25.97;100.00;101096.72;5051128;28;20025;-70
2023/06/07 10:59:15;;;;;;;5.75;2.70;;;;;;;25.78;100.00;99959.28;5051116;28;20079;-70
2023/06/07 11:01:44;;;;;;;7.43;3.65;;;;;;;26.13;100.00;99592.88;5051226;28;20551;-71
2023/06/07 11:04:31;;;;;;;4.18;2.78;;;;;;;26.50;100.00;99319.66;5051178;28;20048;-71
2023/06/07 11:07:32;;;;;;;4.82;2.80;;;;;;;26.65;100.00;99271.06;5050945;28;20037;-71
2023/06/07 11:10:03;;;;;;;5.18;2.90;;;;;;;26.15;100.00;99233.84;5001907;28;20036;-71
2023/06/07 11:12:34;;;;;;;4.97;3.20;;;;;;;25.52;100.00;99221.25;5051365;28;20029;-70
2023/06/07 11:15:35;;;;;;;5.18;3.67;;;;;;;26.40;100.00;99209.47;5050998;28;20358;-70